Hobart, OK (73651)

7:25 AM CDT on March 31, 2015 (GMT -0500)
Hobart OK | | Change Station
CLOSE
Current Station
Personal Weather Station
Location: Hobart, OK
Elevation: 1572 ft
Nearby Weather Stations

Elev 1572 ft 35.03 °N, 99.10 °W | Updated 47 seconds ago

Fog
Fog
56.5 °F
Feels Like 56.5 °F
N
3.7
Wind Variable Wind from WSW

Today
High -- | Low -- °F
--% Chance of Precip.
Yesterday
High -- | Low -- °F
Precip. -- in
7:24 AM 7:56 PM
Waxing Gibbous, 86% visible
Pressure 29.93 in
Visibility 0.2 miles
Clouds
Dew Point 56 °F
Humidity 99%
Rainfall 0.00 in
Snow Depth Not available.
UV Not available.
Pollen 11.50 out of 12
Air Quality Not available.
Flu Activity Not available.
METAR KHBR 311153Z AUTO 28010KT 1/4SM FG VV002 12/12 A2996 RMK AO2 SLP135 60000 T01220122 10139 20106 53005 $

More Conditions Fewer Conditions

Pressure 29.93 in
Visibility 0.2 miles
Clouds
Dew Point 56 °F
Humidity 99%
Rainfall 0.00 in
Snow Depth Not available.
UV Not available.
Pollen 11.50 out of 12
Air Quality Not available.
Flu Activity Not available.
METAR KHBR 311153Z AUTO 28010KT 1/4SM FG VV002 12/12 A2996 RMK AO2 SLP135 60000 T01220122 10139 20106 53005 $

More Conditions Fewer Conditions

10-Day Weather Forecast

Almanac

Astronomy

Mar. 31, 2015 Rise Set
Actual Time
Civil Twilight
Nautical Twilight
Astronomical Twilight
Moon
Length of Visible Light
Length of Day
Tomorrow will be .
, % of the Moon is Illuminated

Today's Extremes

State Highs State Lows

Community

WunderPhotos

Upload Photos

1,809,753 photos uploaded!

WunderBlogs® & News

Nearby

Air Quality

  Air Quality AQ Index Pollutant
Not available.

Snow Depth

Station Depth Elevation

Earthquake Activity

City Distance Mag. Time & Date
Minimum magnitude displayed is 2.5.

Coastal Water Temperatures

Place Temperature

Stations

Nearby Weather Stations

Station Location Temp. Windchill Dew Point Humidity Wind Precip. Elev Updated Type